sensor_id;sensor_type;location;lat;lon;timestamp;P1;durP1;ratioP1;P2;durP2;ratioP2
39956;SDS011;48483;44.640;7.494;2024-02-26T00:02:01;17.63;;;13.50;;
39956;SDS011;48483;44.640;7.494;2024-02-26T00:04:28;20.17;;;13.65;;
39956;SDS011;48483;44.640;7.494;2024-02-26T00:06:54;17.90;;;11.90;;
39956;SDS011;48483;44.640;7.494;2024-02-26T00:09:21;18.92;;;12.05;;
39956;SDS011;48483;44.640;7.494;2024-02-26T00:11:48;20.15;;;13.32;;
39956;SDS011;48483;44.640;7.494;2024-02-26T00:14:15;17.63;;;13.35;;
39956;SDS011;48483;44.640;7.494;2024-02-26T00:16:41;19.65;;;13.40;;
39956;SDS011;48483;44.640;7.494;2024-02-26T00:19:10;19.65;;;12.80;;
39956;SDS011;48483;44.640;7.494;2024-02-26T00:21:39;18.85;;;13.75;;
39956;SDS011;48483;44.640;7.494;2024-02-26T00:24:06;16.60;;;11.75;;
39956;SDS011;48483;44.640;7.494;2024-02-26T00:26:33;17.60;;;11.60;;
39956;SDS011;48483;44.640;7.494;2024-02-26T00:28:59;18.40;;;12.85;;
39956;SDS011;48483;44.640;7.494;2024-02-26T00:31:26;16.83;;;12.75;;
39956;SDS011;48483;44.640;7.494;2024-02-26T00:33:53;16.27;;;11.88;;
39956;SDS011;48483;44.640;7.494;2024-02-26T00:36:21;17.05;;;11.40;;
39956;SDS011;48483;44.640;7.494;2024-02-26T00:38:47;17.50;;;12.30;;
39956;SDS011;48483;44.640;7.494;2024-02-26T00:41:16;16.95;;;10.35;;
39956;SDS011;48483;44.640;7.494;2024-02-26T00:43:43;18.38;;;11.57;;
39956;SDS011;48483;44.640;7.494;2024-02-26T00:46:10;15.82;;;12.32;;
39956;SDS011;48483;44.640;7.494;2024-02-26T00:48:37;16.95;;;11.75;;
39956;SDS011;48483;44.640;7.494;2024-02-26T00:51:03;17.35;;;11.57;;
39956;SDS011;48483;44.640;7.494;2024-02-26T00:53:32;17.60;;;11.82;;
39956;SDS011;48483;44.640;7.494;2024-02-26T00:55:59;15.00;;;11.48;;
39956;SDS011;48483;44.640;7.494;2024-02-26T00:58:26;13.90;;;10.75;;
39956;SDS011;48483;44.640;7.494;2024-02-26T01:00:53;17.60;;;10.98;;
39956;SDS011;48483;44.640;7.494;2024-02-26T01:03:19;15.40;;;11.05;;
39956;SDS011;48483;44.640;7.494;2024-02-26T01:05:46;15.77;;;11.27;;
39956;SDS011;48483;44.640;7.494;2024-02-26T01:08:13;15.95;;;10.75;;
39956;SDS011;48483;44.640;7.494;2024-02-26T01:10:41;14.75;;;11.02;;
39956;SDS011;48483;44.640;7.494;2024-02-26T01:13:07;16.63;;;10.85;;
39956;SDS011;48483;44.640;7.494;2024-02-26T01:15:34;15.90;;;10.82;;
39956;SDS011;48483;44.640;7.494;2024-02-26T01:18:01;16.73;;;11.90;;
39956;SDS011;48483;44.640;7.494;2024-02-26T01:20:28;16.60;;;11.68;;
39956;SDS011;48483;44.640;7.494;2024-02-26T01:22:54;14.88;;;11.43;;
39956;SDS011;48483;44.640;7.494;2024-02-26T01:25:21;15.43;;;11.07;;
39956;SDS011;48483;44.640;7.494;2024-02-26T01:27:49;16.67;;;11.20;;
39956;SDS011;48483;44.640;7.494;2024-02-26T01:30:16;16.77;;;11.63;;
39956;SDS011;48483;44.640;7.494;2024-02-26T01:32:42;16.25;;;11.00;;
39956;SDS011;48483;44.640;7.494;2024-02-26T01:35:09;15.40;;;11.13;;
39956;SDS011;48483;44.640;7.494;2024-02-26T01:37:38;15.00;;;11.07;;
39956;SDS011;48483;44.640;7.494;2024-02-26T01:40:05;17.67;;;11.77;;
39956;SDS011;48483;44.640;7.494;2024-02-26T01:42:32;15.60;;;11.55;;
39956;SDS011;48483;44.640;7.494;2024-02-26T01:45:01;17.77;;;11.50;;
39956;SDS011;48483;44.640;7.494;2024-02-26T01:47:28;18.17;;;12.02;;
39956;SDS011;48483;44.640;7.494;2024-02-26T01:49:55;17.85;;;12.32;;
39956;SDS011;48483;44.640;7.494;2024-02-26T01:52:22;15.93;;;10.55;;
39956;SDS011;48483;44.640;7.494;2024-02-26T01:54:48;12.55;;;9.98;;
39956;SDS011;48483;44.640;7.494;2024-02-26T01:57:16;14.65;;;10.38;;
39956;SDS011;48483;44.640;7.494;2024-02-26T01:59:43;14.00;;;10.05;;
39956;SDS011;48483;44.640;7.494;2024-02-26T02:02:11;17.25;;;10.52;;
39956;SDS011;48483;44.640;7.494;2024-02-26T02:04:40;14.27;;;10.02;;
39956;SDS011;48483;44.640;7.494;2024-02-26T02:07:07;15.20;;;9.88;;
39956;SDS011;48483;44.640;7.494;2024-02-26T02:09:34;13.95;;;10.95;;
39956;SDS011;48483;44.640;7.494;2024-02-26T02:12:01;15.35;;;11.50;;
39956;SDS011;48483;44.640;7.494;2024-02-26T02:14:28;14.38;;;10.63;;
39956;SDS011;48483;44.640;7.494;2024-02-26T02:16:54;15.68;;;11.20;;
39956;SDS011;48483;44.640;7.494;2024-02-26T02:19:23;14.95;;;11.02;;
39956;SDS011;48483;44.640;7.494;2024-02-26T02:21:51;18.40;;;12.65;;
39956;SDS011;48483;44.640;7.494;2024-02-26T02:24:17;19.70;;;11.25;;
39956;SDS011;48483;44.640;7.494;2024-02-26T02:26:44;15.88;;;10.77;;
39956;SDS011;48483;44.640;7.494;2024-02-26T02:29:11;16.42;;;11.80;;
39956;SDS011;48483;44.640;7.494;2024-02-26T02:31:38;15.32;;;11.38;;
39956;SDS011;48483;44.640;7.494;2024-02-26T02:34:05;15.05;;;11.43;;
39956;SDS011;48483;44.640;7.494;2024-02-26T02:36:32;17.02;;;11.35;;
39956;SDS011;48483;44.640;7.494;2024-02-26T02:39:00;16.80;;;11.50;;
39956;SDS011;48483;44.640;7.494;2024-02-26T02:41:27;17.10;;;12.13;;
39956;SDS011;48483;44.640;7.494;2024-02-26T02:43:55;17.00;;;11.65;;
39956;SDS011;48483;44.640;7.494;2024-02-26T02:46:22;16.67;;;11.00;;
39956;SDS011;48483;44.640;7.494;2024-02-26T02:48:49;17.08;;;11.52;;
39956;SDS011;48483;44.640;7.494;2024-02-26T02:51:16;15.40;;;11.15;;
39956;SDS011;48483;44.640;7.494;2024-02-26T02:53:42;15.50;;;11.35;;
39956;SDS011;48483;44.640;7.494;2024-02-26T02:56:10;14.90;;;10.52;;
39956;SDS011;48483;44.640;7.494;2024-02-26T02:58:37;13.35;;;10.13;;
39956;SDS011;48483;44.640;7.494;2024-02-26T03:01:04;14.85;;;10.40;;
39956;SDS011;48483;44.640;7.494;2024-02-26T03:03:31;15.23;;;10.38;;
39956;SDS011;48483;44.640;7.494;2024-02-26T03:05:57;15.88;;;10.07;;
39956;SDS011;48483;44.640;7.494;2024-02-26T03:08:24;15.07;;;10.20;;
39956;SDS011;48483;44.640;7.494;2024-02-26T03:10:51;15.05;;;10.82;;
39956;SDS011;48483;44.640;7.494;2024-02-26T03:13:19;13.40;;;9.80;;
39956;SDS011;48483;44.640;7.494;2024-02-26T03:15:46;15.55;;;10.38;;
39956;SDS011;48483;44.640;7.494;2024-02-26T03:18:13;16.50;;;11.35;;
39956;SDS011;48483;44.640;7.494;2024-02-26T03:20:39;15.57;;;10.32;;
39956;SDS011;48483;44.640;7.494;2024-02-26T03:23:06;15.05;;;10.90;;
39956;SDS011;48483;44.640;7.494;2024-02-26T03:25:35;16.17;;;10.82;;
39956;SDS011;48483;44.640;7.494;2024-02-26T03:28:02;16.25;;;10.73;;
39956;SDS011;48483;44.640;7.494;2024-02-26T03:30:30;16.10;;;11.10;;
39956;SDS011;48483;44.640;7.494;2024-02-26T03:32:57;12.82;;;10.15;;
39956;SDS011;48483;44.640;7.494;2024-02-26T03:35:24;16.00;;;10.98;;
39956;SDS011;48483;44.640;7.494;2024-02-26T03:37:50;15.63;;;11.45;;
39956;SDS011;48483;44.640;7.494;2024-02-26T03:40:17;14.38;;;10.60;;
39956;SDS011;48483;44.640;7.494;2024-02-26T03:42:45;15.85;;;11.13;;
39956;SDS011;48483;44.640;7.494;2024-02-26T03:45:12;13.85;;;10.98;;
39956;SDS011;48483;44.640;7.494;2024-02-26T03:47:40;18.50;;;11.93;;
39956;SDS011;48483;44.640;7.494;2024-02-26T03:50:07;15.75;;;11.23;;
39956;SDS011;48483;44.640;7.494;2024-02-26T03:52:34;16.80;;;11.02;;
39956;SDS011;48483;44.640;7.494;2024-02-26T03:55:01;14.48;;;11.18;;
39956;SDS011;48483;44.640;7.494;2024-02-26T03:57:27;17.80;;;11.77;;
39956;SDS011;48483;44.640;7.494;2024-02-26T03:59:54;14.68;;;11.55;;
39956;SDS011;48483;44.640;7.494;2024-02-26T04:02:21;16.67;;;12.50;;
39956;SDS011;48483;44.640;7.494;2024-02-26T04:04:50;18.27;;;12.48;;
39956;SDS011;48483;44.640;7.494;2024-02-26T04:07:17;17.05;;;11.40;;
39956;SDS011;48483;44.640;7.494;2024-02-26T04:09:44;15.23;;;10.80;;
39956;SDS011;48483;44.640;7.494;2024-02-26T04:12:10;13.60;;;10.95;;
39956;SDS011;48483;44.640;7.494;2024-02-26T04:14:37;17.52;;;11.63;;
39956;SDS011;48483;44.640;7.494;2024-02-26T04:17:04;15.98;;;11.48;;
39956;SDS011;48483;44.640;7.494;2024-02-26T04:19:30;16.10;;;11.23;;
39956;SDS011;48483;44.640;7.494;2024-02-26T04:21:58;14.52;;;10.35;;
39956;SDS011;48483;44.640;7.494;2024-02-26T04:24:25;15.18;;;10.60;;
39956;SDS011;48483;44.640;7.494;2024-02-26T04:26:52;14.77;;;10.68;;
39956;SDS011;48483;44.640;7.494;2024-02-26T04:29:19;17.30;;;11.82;;
39956;SDS011;48483;44.640;7.494;2024-02-26T04:31:46;14.80;;;10.88;;
39956;SDS011;48483;44.640;7.494;2024-02-26T04:34:13;14.40;;;9.63;;
39956;SDS011;48483;44.640;7.494;2024-02-26T04:36:40;12.73;;;9.13;;
39956;SDS011;48483;44.640;7.494;2024-02-26T04:39:09;12.00;;;9.27;;
39956;SDS011;48483;44.640;7.494;2024-02-26T04:41:36;13.27;;;9.40;;
39956;SDS011;48483;44.640;7.494;2024-02-26T04:44:02;12.52;;;8.70;;
39956;SDS011;48483;44.640;7.494;2024-02-26T04:46:29;13.90;;;8.90;;
39956;SDS011;48483;44.640;7.494;2024-02-26T04:48:56;14.95;;;9.63;;
39956;SDS011;48483;44.640;7.494;2024-02-26T04:51:23;11.68;;;8.32;;
39956;SDS011;48483;44.640;7.494;2024-02-26T04:53:49;11.98;;;8.20;;
39956;SDS011;48483;44.640;7.494;2024-02-26T04:56:17;11.55;;;8.50;;
39956;SDS011;48483;44.640;7.494;2024-02-26T04:58:44;12.32;;;8.15;;
39956;SDS011;48483;44.640;7.494;2024-02-26T05:01:11;12.23;;;7.70;;
39956;SDS011;48483;44.640;7.494;2024-02-26T05:03:38;10.13;;;7.97;;
39956;SDS011;48483;44.640;7.494;2024-02-26T05:06:05;11.57;;;7.25;;
39956;SDS011;48483;44.640;7.494;2024-02-26T05:08:32;9.95;;;7.07;;
39956;SDS011;48483;44.640;7.494;2024-02-26T05:11:01;8.07;;;5.32;;
39956;SDS011;48483;44.640;7.494;2024-02-26T05:13:30;8.38;;;6.03;;
39956;SDS011;48483;44.640;7.494;2024-02-26T05:15:57;9.90;;;6.40;;
39956;SDS011;48483;44.640;7.494;2024-02-26T05:18:24;9.25;;;5.93;;
39956;SDS011;48483;44.640;7.494;2024-02-26T05:20:50;12.13;;;6.88;;
39956;SDS011;48483;44.640;7.494;2024-02-26T05:23:17;10.27;;;6.82;;
39956;SDS011;48483;44.640;7.494;2024-02-26T05:25:44;11.75;;;8.20;;
39956;SDS011;48483;44.640;7.494;2024-02-26T05:28:13;11.38;;;8.32;;
39956;SDS011;48483;44.640;7.494;2024-02-26T05:30:42;11.55;;;8.07;;
39956;SDS011;48483;44.640;7.494;2024-02-26T05:33:09;12.75;;;8.38;;
39956;SDS011;48483;44.640;7.494;2024-02-26T05:35:36;12.23;;;7.90;;
39956;SDS011;48483;44.640;7.494;2024-02-26T05:38:03;12.98;;;7.55;;
39956;SDS011;48483;44.640;7.494;2024-02-26T05:40:30;12.73;;;8.57;;
39956;SDS011;48483;44.640;7.494;2024-02-26T05:42:57;10.95;;;8.23;;
39956;SDS011;48483;44.640;7.494;2024-02-26T05:45:23;12.77;;;7.32;;
39956;SDS011;48483;44.640;7.494;2024-02-26T05:47:51;10.07;;;7.25;;
39956;SDS011;48483;44.640;7.494;2024-02-26T05:50:18;11.63;;;7.78;;
39956;SDS011;48483;44.640;7.494;2024-02-26T05:52:45;9.57;;;6.78;;
39956;SDS011;48483;44.640;7.494;2024-02-26T05:55:11;10.05;;;6.22;;
39956;SDS011;48483;44.640;7.494;2024-02-26T05:57:39;10.63;;;6.82;;
39956;SDS011;48483;44.640;7.494;2024-02-26T06:00:07;10.98;;;7.10;;
39956;SDS011;48483;44.640;7.494;2024-02-26T06:02:40;10.73;;;6.88;;
39956;SDS011;48483;44.640;7.494;2024-02-26T06:05:08;15.30;;;10.18;;
39956;SDS011;48483;44.640;7.494;2024-02-26T06:07:35;11.90;;;8.48;;
39956;SDS011;48483;44.640;7.494;2024-02-26T06:10:02;10.98;;;7.90;;
39956;SDS011;48483;44.640;7.494;2024-02-26T06:12:30;12.60;;;8.02;;
39956;SDS011;48483;44.640;7.494;2024-02-26T06:14:57;12.73;;;8.15;;
39956;SDS011;48483;44.640;7.494;2024-02-26T06:17:26;10.65;;;7.10;;
39956;SDS011;48483;44.640;7.494;2024-02-26T06:19:54;9.63;;;6.72;;
39956;SDS011;48483;44.640;7.494;2024-02-26T06:22:22;9.52;;;6.07;;
39956;SDS011;48483;44.640;7.494;2024-02-26T06:24:49;8.70;;;5.88;;
39956;SDS011;48483;44.640;7.494;2024-02-26T06:27:15;8.65;;;5.45;;
39956;SDS011;48483;44.640;7.494;2024-02-26T06:29:42;10.60;;;6.72;;
39956;SDS011;48483;44.640;7.494;2024-02-26T06:32:09;9.40;;;5.38;;
39956;SDS011;48483;44.640;7.494;2024-02-26T06:34:35;7.63;;;5.47;;
39956;SDS011;48483;44.640;7.494;2024-02-26T06:37:04;8.70;;;5.80;;
39956;SDS011;48483;44.640;7.494;2024-02-26T06:39:32;8.07;;;5.40;;
39956;SDS011;48483;44.640;7.494;2024-02-26T06:41:59;7.15;;;4.55;;
39956;SDS011;48483;44.640;7.494;2024-02-26T06:44:27;7.80;;;4.30;;
39956;SDS011;48483;44.640;7.494;2024-02-26T06:47:03;6.28;;;3.92;;
39956;SDS011;48483;44.640;7.494;2024-02-26T06:49:30;6.60;;;4.28;;
39956;SDS011;48483;44.640;7.494;2024-02-26T06:51:56;6.47;;;3.78;;
39956;SDS011;48483;44.640;7.494;2024-02-26T06:54:23;5.05;;;3.30;;
39956;SDS011;48483;44.640;7.494;2024-02-26T06:56:51;4.63;;;3.03;;
39956;SDS011;48483;44.640;7.494;2024-02-26T06:59:18;5.30;;;3.13;;
39956;SDS011;48483;44.640;7.494;2024-02-26T07:01:45;4.20;;;2.70;;
39956;SDS011;48483;44.640;7.494;2024-02-26T07:04:12;4.22;;;2.55;;
39956;SDS011;48483;44.640;7.494;2024-02-26T07:06:39;4.78;;;2.60;;
39956;SDS011;48483;44.640;7.494;2024-02-26T07:09:06;3.85;;;2.72;;
39956;SDS011;48483;44.640;7.494;2024-02-26T07:11:32;4.00;;;2.53;;
39956;SDS011;48483;44.640;7.494;2024-02-26T07:14:00;4.32;;;2.75;;
39956;SDS011;48483;44.640;7.494;2024-02-26T07:16:27;4.35;;;2.30;;
39956;SDS011;48483;44.640;7.494;2024-02-26T07:18:54;5.88;;;2.35;;
39956;SDS011;48483;44.640;7.494;2024-02-26T07:21:21;3.97;;;2.38;;
39956;SDS011;48483;44.640;7.494;2024-02-26T07:23:47;4.85;;;2.38;;
39956;SDS011;48483;44.640;7.494;2024-02-26T07:26:14;2.70;;;1.75;;
39956;SDS011;48483;44.640;7.494;2024-02-26T07:28:43;2.97;;;1.60;;
39956;SDS011;48483;44.640;7.494;2024-02-26T07:31:11;3.85;;;1.45;;
39956;SDS011;48483;44.640;7.494;2024-02-26T07:33:38;2.53;;;1.50;;
39956;SDS011;48483;44.640;7.494;2024-02-26T07:36:05;2.95;;;1.90;;
39956;SDS011;48483;44.640;7.494;2024-02-26T07:38:32;2.88;;;1.73;;
39956;SDS011;48483;44.640;7.494;2024-02-26T07:40:58;3.10;;;1.80;;
39956;SDS011;48483;44.640;7.494;2024-02-26T07:43:27;3.08;;;1.75;;
39956;SDS011;48483;44.640;7.494;2024-02-26T07:45:53;2.63;;;1.35;;
39956;SDS011;48483;44.640;7.494;2024-02-26T07:48:22;3.78;;;1.75;;
39956;SDS011;48483;44.640;7.494;2024-02-26T07:50:48;2.40;;;1.38;;
39956;SDS011;48483;44.640;7.494;2024-02-26T07:53:15;3.67;;;1.38;;
39956;SDS011;48483;44.640;7.494;2024-02-26T07:55:42;2.33;;;1.60;;
39956;SDS011;48483;44.640;7.494;2024-02-26T07:58:08;1.77;;;0.90;;
39956;SDS011;48483;44.640;7.494;2024-02-26T08:00:35;2.03;;;0.88;;
39956;SDS011;48483;44.640;7.494;2024-02-26T08:03:02;1.35;;;1.00;;
39956;SDS011;48483;44.640;7.494;2024-02-26T08:05:30;2.55;;;1.45;;
39956;SDS011;48483;44.640;7.494;2024-02-26T08:07:57;1.33;;;0.93;;
39956;SDS011;48483;44.640;7.494;2024-02-26T08:10:24;3.00;;;1.30;;
39956;SDS011;48483;44.640;7.494;2024-02-26T08:12:50;2.22;;;1.10;;
39956;SDS011;48483;44.640;7.494;2024-02-26T08:15:17;1.67;;;0.98;;
39956;SDS011;48483;44.640;7.494;2024-02-26T08:17:44;2.45;;;1.35;;
39956;SDS011;48483;44.640;7.494;2024-02-26T08:20:13;2.63;;;1.30;;
39956;SDS011;48483;44.640;7.494;2024-02-26T08:22:42;3.75;;;1.92;;
39956;SDS011;48483;44.640;7.494;2024-02-26T08:25:09;2.80;;;1.85;;
39956;SDS011;48483;44.640;7.494;2024-02-26T08:27:36;2.90;;;2.13;;
39956;SDS011;48483;44.640;7.494;2024-02-26T08:30:03;2.92;;;1.85;;
39956;SDS011;48483;44.640;7.494;2024-02-26T08:32:31;3.10;;;1.90;;
39956;SDS011;48483;44.640;7.494;2024-02-26T08:34:57;2.42;;;1.40;;
39956;SDS011;48483;44.640;7.494;2024-02-26T08:37:24;2.67;;;1.33;;
39956;SDS011;48483;44.640;7.494;2024-02-26T08:39:52;4.60;;;2.50;;
39956;SDS011;48483;44.640;7.494;2024-02-26T08:42:19;3.88;;;1.95;;
39956;SDS011;48483;44.640;7.494;2024-02-26T08:44:47;2.90;;;1.50;;
39956;SDS011;48483;44.640;7.494;2024-02-26T08:47:13;2.92;;;1.80;;
39956;SDS011;48483;44.640;7.494;2024-02-26T08:49:42;2.38;;;1.40;;
39956;SDS011;48483;44.640;7.494;2024-02-26T08:52:09;2.33;;;1.42;;
39956;SDS011;48483;44.640;7.494;2024-02-26T08:54:36;1.77;;;1.25;;
39956;SDS011;48483;44.640;7.494;2024-02-26T08:57:04;2.72;;;1.17;;
39956;SDS011;48483;44.640;7.494;2024-02-26T08:59:31;3.00;;;0.80;;
39956;SDS011;48483;44.640;7.494;2024-02-26T09:01:58;1.80;;;0.70;;
39956;SDS011;48483;44.640;7.494;2024-02-26T09:04:24;3.35;;;1.70;;
39956;SDS011;48483;44.640;7.494;2024-02-26T09:06:53;4.13;;;1.60;;
39956;SDS011;48483;44.640;7.494;2024-02-26T09:09:19;2.58;;;1.10;;
39956;SDS011;48483;44.640;7.494;2024-02-26T09:11:48;2.25;;;1.17;;
39956;SDS011;48483;44.640;7.494;2024-02-26T09:14:18;0.88;;;0.77;;
39956;SDS011;48483;44.640;7.494;2024-02-26T09:16:45;1.05;;;0.70;;
39956;SDS011;48483;44.640;7.494;2024-02-26T09:19:14;1.13;;;0.70;;
39956;SDS011;48483;44.640;7.494;2024-02-26T09:21:42;0.82;;;0.80;;
39956;SDS011;48483;44.640;7.494;2024-02-26T09:24:09;2.13;;;0.60;;
39956;SDS011;48483;44.640;7.494;2024-02-26T09:26:35;1.30;;;0.63;;
39956;SDS011;48483;44.640;7.494;2024-02-26T09:29:02;2.00;;;1.00;;
39956;SDS011;48483;44.640;7.494;2024-02-26T09:31:31;2.80;;;0.80;;
39956;SDS011;48483;44.640;7.494;2024-02-26T09:33:58;2.03;;;1.20;;
39956;SDS011;48483;44.640;7.494;2024-02-26T09:36:24;1.77;;;1.05;;
39956;SDS011;48483;44.640;7.494;2024-02-26T09:38:51;1.88;;;1.20;;
39956;SDS011;48483;44.640;7.494;2024-02-26T09:41:18;1.75;;;1.25;;
39956;SDS011;48483;44.640;7.494;2024-02-26T09:43:45;1.55;;;1.02;;
39956;SDS011;48483;44.640;7.494;2024-02-26T09:46:14;2.08;;;1.08;;
39956;SDS011;48483;44.640;7.494;2024-02-26T09:48:44;1.42;;;0.70;;
39956;SDS011;48483;44.640;7.494;2024-02-26T09:51:13;1.52;;;0.77;;
39956;SDS011;48483;44.640;7.494;2024-02-26T09:53:40;2.10;;;1.13;;
39956;SDS011;48483;44.640;7.494;2024-02-26T09:56:10;1.58;;;1.23;;
39956;SDS011;48483;44.640;7.494;2024-02-26T09:58:38;2.03;;;1.30;;
39956;SDS011;48483;44.640;7.494;2024-02-26T10:01:08;1.70;;;1.05;;
39956;SDS011;48483;44.640;7.494;2024-02-26T10:03:40;2.20;;;1.40;;
39956;SDS011;48483;44.640;7.494;2024-02-26T10:06:09;1.60;;;0.95;;
39956;SDS011;48483;44.640;7.494;2024-02-26T10:08:36;2.90;;;1.40;;
39956;SDS011;48483;44.640;7.494;2024-02-26T10:11:03;3.08;;;1.70;;
39956;SDS011;48483;44.640;7.494;2024-02-26T10:13:31;2.42;;;1.48;;
39956;SDS011;48483;44.640;7.494;2024-02-26T10:15:57;2.28;;;1.02;;
39956;SDS011;48483;44.640;7.494;2024-02-26T10:18:24;1.92;;;1.20;;
39956;SDS011;48483;44.640;7.494;2024-02-26T10:21:00;2.13;;;1.48;;
39956;SDS011;48483;44.640;7.494;2024-02-26T10:23:29;2.03;;;1.10;;
39956;SDS011;48483;44.640;7.494;2024-02-26T10:25:55;1.90;;;1.08;;
39956;SDS011;48483;44.640;7.494;2024-02-26T10:28:22;1.90;;;1.00;;
39956;SDS011;48483;44.640;7.494;2024-02-26T10:30:50;2.47;;;2.10;;
39956;SDS011;48483;44.640;7.494;2024-02-26T10:33:18;1.70;;;1.10;;
39956;SDS011;48483;44.640;7.494;2024-02-26T10:35:46;3.90;;;1.45;;
39956;SDS011;48483;44.640;7.494;2024-02-26T10:38:12;3.38;;;1.30;;
39956;SDS011;48483;44.640;7.494;2024-02-26T10:40:41;2.17;;;1.50;;
39956;SDS011;48483;44.640;7.494;2024-02-26T10:43:07;3.03;;;1.20;;
39956;SDS011;48483;44.640;7.494;2024-02-26T10:45:34;3.72;;;1.63;;
39956;SDS011;48483;44.640;7.494;2024-02-26T10:48:03;3.00;;;1.60;;
39956;SDS011;48483;44.640;7.494;2024-02-26T10:50:30;2.83;;;1.52;;
39956;SDS011;48483;44.640;7.494;2024-02-26T10:52:57;2.75;;;1.50;;
39956;SDS011;48483;44.640;7.494;2024-02-26T10:55:25;2.92;;;1.73;;
39956;SDS011;48483;44.640;7.494;2024-02-26T10:57:54;2.22;;;1.35;;
39956;SDS011;48483;44.640;7.494;2024-02-26T11:00:22;2.08;;;1.05;;
39956;SDS011;48483;44.640;7.494;2024-02-26T11:02:49;1.75;;;1.02;;
39956;SDS011;48483;44.640;7.494;2024-02-26T11:05:17;1.27;;;0.80;;
39956;SDS011;48483;44.640;7.494;2024-02-26T11:07:44;1.55;;;0.88;;
39956;SDS011;48483;44.640;7.494;2024-02-26T11:10:13;1.15;;;0.65;;
39956;SDS011;48483;44.640;7.494;2024-02-26T11:12:42;0.95;;;0.70;;
39956;SDS011;48483;44.640;7.494;2024-02-26T11:15:11;1.40;;;0.70;;
39956;SDS011;48483;44.640;7.494;2024-02-26T11:17:38;1.70;;;0.80;;
39956;SDS011;48483;44.640;7.494;2024-02-26T11:20:24;1.83;;;1.00;;
39956;SDS011;48483;44.640;7.494;2024-02-26T11:22:54;2.20;;;1.13;;
39956;SDS011;48483;44.640;7.494;2024-02-26T11:25:20;2.97;;;1.20;;
39956;SDS011;48483;44.640;7.494;2024-02-26T11:27:48;1.25;;;1.05;;
39956;SDS011;48483;44.640;7.494;2024-02-26T11:30:19;1.90;;;1.35;;
39956;SDS011;48483;44.640;7.494;2024-02-26T11:32:47;2.10;;;1.15;;
39956;SDS011;48483;44.640;7.494;2024-02-26T11:35:14;8.20;;;2.63;;
39956;SDS011;48483;44.640;7.494;2024-02-26T11:37:50;4.32;;;2.45;;
39956;SDS011;48483;44.640;7.494;2024-02-26T11:40:18;2.22;;;1.13;;
39956;SDS011;48483;44.640;7.494;2024-02-26T11:42:45;1.90;;;1.25;;
39956;SDS011;48483;44.640;7.494;2024-02-26T11:48:20;3.30;;;1.10;;
39956;SDS011;48483;44.640;7.494;2024-02-26T11:50:49;2.78;;;1.27;;
39956;SDS011;48483;44.640;7.494;2024-02-26T11:53:21;0.95;;;0.85;;
39956;SDS011;48483;44.640;7.494;2024-02-26T11:58:45;1.80;;;1.17;;
39956;SDS011;48483;44.640;7.494;2024-02-26T12:04:17;3.65;;;1.52;;
39956;SDS011;48483;44.640;7.494;2024-02-26T12:06:46;2.35;;;1.45;;
39956;SDS011;48483;44.640;7.494;2024-02-26T12:09:32;2.40;;;1.20;;
39956;SDS011;48483;44.640;7.494;2024-02-26T12:12:00;2.65;;;1.20;;
39956;SDS011;48483;44.640;7.494;2024-02-26T12:14:28;1.25;;;0.80;;
39956;SDS011;48483;44.640;7.494;2024-02-26T12:16:56;1.70;;;0.90;;
39956;SDS011;48483;44.640;7.494;2024-02-26T12:19:24;1.55;;;1.15;;
39956;SDS011;48483;44.640;7.494;2024-02-26T12:21:51;2.38;;;1.48;;
39956;SDS011;48483;44.640;7.494;2024-02-26T12:24:21;1.75;;;0.98;;
39956;SDS011;48483;44.640;7.494;2024-02-26T12:26:48;1.67;;;0.90;;
39956;SDS011;48483;44.640;7.494;2024-02-26T12:29:15;1.42;;;0.98;;
39956;SDS011;48483;44.640;7.494;2024-02-26T12:31:42;2.13;;;1.33;;
39956;SDS011;48483;44.640;7.494;2024-02-26T12:34:11;2.35;;;1.40;;
39956;SDS011;48483;44.640;7.494;2024-02-26T12:36:39;3.05;;;1.73;;
39956;SDS011;48483;44.640;7.494;2024-02-26T12:39:06;2.03;;;1.10;;
39956;SDS011;48483;44.640;7.494;2024-02-26T12:41:33;2.25;;;1.40;;
39956;SDS011;48483;44.640;7.494;2024-02-26T12:44:00;3.22;;;2.15;;
39956;SDS011;48483;44.640;7.494;2024-02-26T12:46:27;3.05;;;1.45;;
39956;SDS011;48483;44.640;7.494;2024-02-26T12:48:55;6.38;;;3.55;;
39956;SDS011;48483;44.640;7.494;2024-02-26T12:51:26;5.28;;;4.03;;
39956;SDS011;48483;44.640;7.494;2024-02-26T12:53:54;3.78;;;2.40;;
39956;SDS011;48483;44.640;7.494;2024-02-26T12:56:22;3.58;;;2.05;;
39956;SDS011;48483;44.640;7.494;2024-02-26T12:58:49;3.35;;;2.08;;
39956;SDS011;48483;44.640;7.494;2024-02-26T13:01:17;2.25;;;1.00;;
39956;SDS011;48483;44.640;7.494;2024-02-26T13:03:46;1.67;;;1.00;;
39956;SDS011;48483;44.640;7.494;2024-02-26T13:06:14;2.75;;;1.65;;
39956;SDS011;48483;44.640;7.494;2024-02-26T13:08:43;3.00;;;1.77;;
39956;SDS011;48483;44.640;7.494;2024-02-26T13:11:09;2.50;;;1.83;;
39956;SDS011;48483;44.640;7.494;2024-02-26T13:13:36;3.20;;;1.58;;
39956;SDS011;48483;44.640;7.494;2024-02-26T13:16:03;2.72;;;1.60;;
39956;SDS011;48483;44.640;7.494;2024-02-26T13:18:32;2.72;;;1.88;;
39956;SDS011;48483;44.640;7.494;2024-02-26T13:21:07;2.05;;;1.42;;
39956;SDS011;48483;44.640;7.494;2024-02-26T13:23:35;1.70;;;1.35;;
39956;SDS011;48483;44.640;7.494;2024-02-26T13:26:03;6.05;;;2.33;;
39956;SDS011;48483;44.640;7.494;2024-02-26T13:28:30;1.52;;;1.30;;
39956;SDS011;48483;44.640;7.494;2024-02-26T13:30:58;3.25;;;1.33;;
39956;SDS011;48483;44.640;7.494;2024-02-26T13:33:27;2.00;;;1.55;;
39956;SDS011;48483;44.640;7.494;2024-02-26T13:35:55;2.28;;;1.60;;
39956;SDS011;48483;44.640;7.494;2024-02-26T13:38:22;2.33;;;1.25;;
39956;SDS011;48483;44.640;7.494;2024-02-26T13:40:49;2.08;;;1.00;;
39956;SDS011;48483;44.640;7.494;2024-02-26T13:43:18;3.17;;;1.40;;
39956;SDS011;48483;44.640;7.494;2024-02-26T13:45:45;1.75;;;0.95;;
39956;SDS011;48483;44.640;7.494;2024-02-26T13:48:12;2.75;;;1.20;;
39956;SDS011;48483;44.640;7.494;2024-02-26T13:50:41;1.13;;;1.02;;
39956;SDS011;48483;44.640;7.494;2024-02-26T13:53:09;1.75;;;1.08;;
39956;SDS011;48483;44.640;7.494;2024-02-26T13:55:36;1.90;;;1.05;;
39956;SDS011;48483;44.640;7.494;2024-02-26T13:58:02;1.42;;;1.05;;
39956;SDS011;48483;44.640;7.494;2024-02-26T14:00:31;1.95;;;1.13;;
39956;SDS011;48483;44.640;7.494;2024-02-26T14:02:59;1.98;;;1.38;;
39956;SDS011;48483;44.640;7.494;2024-02-26T14:05:27;2.33;;;1.25;;
39956;SDS011;48483;44.640;7.494;2024-02-26T14:07:53;2.38;;;1.45;;
39956;SDS011;48483;44.640;7.494;2024-02-26T14:10:21;1.42;;;1.13;;
39956;SDS011;48483;44.640;7.494;2024-02-26T14:12:47;4.32;;;1.77;;
39956;SDS011;48483;44.640;7.494;2024-02-26T14:15:14;2.55;;;1.27;;
39956;SDS011;48483;44.640;7.494;2024-02-26T14:17:42;3.08;;;1.10;;
39956;SDS011;48483;44.640;7.494;2024-02-26T14:20:10;3.13;;;1.20;;
39956;SDS011;48483;44.640;7.494;2024-02-26T14:22:36;1.63;;;1.05;;
39956;SDS011;48483;44.640;7.494;2024-02-26T14:25:03;2.67;;;0.60;;
39956;SDS011;48483;44.640;7.494;2024-02-26T14:27:30;1.67;;;0.73;;
39956;SDS011;48483;44.640;7.494;2024-02-26T14:29:57;3.05;;;1.77;;
39956;SDS011;48483;44.640;7.494;2024-02-26T14:32:24;2.75;;;1.23;;
39956;SDS011;48483;44.640;7.494;2024-02-26T14:34:52;3.83;;;1.38;;
39956;SDS011;48483;44.640;7.494;2024-02-26T14:37:18;3.17;;;1.40;;
39956;SDS011;48483;44.640;7.494;2024-02-26T14:39:45;1.98;;;1.50;;
39956;SDS011;48483;44.640;7.494;2024-02-26T14:42:13;2.15;;;1.40;;
39956;SDS011;48483;44.640;7.494;2024-02-26T14:44:43;3.03;;;1.60;;
39956;SDS011;48483;44.640;7.494;2024-02-26T14:47:10;1.42;;;0.90;;
39956;SDS011;48483;44.640;7.494;2024-02-26T14:49:37;1.90;;;1.20;;